createdAt,value
2023-05-13T00:00:11.606Z,94909.47
2023-05-13T00:02:40.983Z,94904.56
2023-05-13T00:05:09.876Z,94908.59
2023-05-13T00:07:37.808Z,94910.22
2023-05-13T00:10:06.100Z,94916.78
2023-05-13T00:12:34.078Z,94913.69
2023-05-13T00:15:02.226Z,94908.72
2023-05-13T00:17:30.319Z,94925.47
2023-05-13T00:19:59.755Z,94941.28
2023-05-13T00:22:27.664Z,94935.81
2023-05-13T00:24:57.906Z,94939.97
2023-05-13T00:27:25.927Z,94946.81
2023-05-13T00:29:53.963Z,94952.75
2023-05-13T00:32:22.065Z,94927.31
2023-05-13T00:34:49.990Z,94937.00
2023-05-13T00:37:19.286Z,94932.41
2023-05-13T00:39:47.223Z,94937.22
2023-05-13T00:42:15.408Z,94945.88
2023-05-13T00:44:43.344Z,94919.84
2023-05-13T00:47:12.639Z,94940.41
2023-05-13T00:49:40.891Z,94946.91
2023-05-13T00:52:08.829Z,94944.53
2023-05-13T00:54:38.111Z,94952.66
2023-05-13T00:57:06.504Z,94931.28
2023-05-13T00:59:34.534Z,94946.06
2023-05-13T01:02:11.531Z,94934.69
2023-05-13T01:04:45.720Z,94929.34
2023-05-13T01:07:23.540Z,94930.25
2023-05-13T01:10:02.628Z,94941.28
2023-05-13T01:12:34.028Z,94932.28
2023-05-13T01:15:07.148Z,94941.28
2023-05-13T01:17:40.761Z,94951.22
2023-05-13T01:20:10.004Z,94951.22
2023-05-13T01:22:39.371Z,94950.78
2023-05-13T01:25:08.047Z,94961.66
2023-05-13T01:27:36.114Z,94948.97
2023-05-13T01:30:04.924Z,94969.31
2023-05-13T01:32:33.173Z,94975.44
2023-05-13T01:35:02.618Z,94973.25
2023-05-13T01:37:31.405Z,94970.22
2023-05-13T01:40:01.011Z,94976.44
2023-05-13T01:42:31.304Z,94979.41
2023-05-13T01:44:59.280Z,94980.72
2023-05-13T01:47:27.237Z,94981.59
2023-05-13T01:49:55.276Z,94984.84
2023-05-13T01:52:23.173Z,94969.19
2023-05-13T01:54:51.168Z,94988.44
2023-05-13T01:57:23.598Z,94970.63
2023-05-13T01:59:51.514Z,94970.19
2023-05-13T02:02:19.595Z,94985.31
2023-05-13T02:04:47.633Z,94972.03
2023-05-13T02:07:15.558Z,94949.88
2023-05-13T02:09:43.624Z,94971.25
2023-05-13T02:12:11.505Z,94932.69
2023-05-13T02:14:40.837Z,94976.09
2023-05-13T02:17:08.704Z,94961.22
2023-05-13T02:19:36.752Z,94975.97
2023-05-13T02:22:04.861Z,94965.69
2023-05-13T02:24:32.872Z,94960.69
2023-05-13T02:27:00.936Z,94974.34
2023-05-13T02:29:28.852Z,94978.91
2023-05-13T02:31:58.191Z,94981.94
2023-05-13T02:34:26.481Z,94979.81
2023-05-13T02:36:54.465Z,94982.50
2023-05-13T02:39:22.485Z,94969.03
2023-05-13T02:41:50.690Z,94977.31
2023-05-13T02:44:18.643Z,94977.31
2023-05-13T02:46:46.613Z,94964.13
2023-05-13T02:49:15.889Z,94965.56
2023-05-13T02:51:43.920Z,94948.97
2023-05-13T02:54:11.882Z,94972.16
2023-05-13T02:56:39.917Z,94980.41
2023-05-13T02:59:07.904Z,94967.41
2023-05-13T03:01:35.882Z,94994.78
2023-05-13T03:04:03.879Z,94987.94
2023-05-13T03:06:33.138Z,95005.00
2023-05-13T03:09:01.093Z,94993.16
2023-05-13T03:11:29.062Z,94994.22
2023-05-13T03:13:56.927Z,95002.25
2023-05-13T03:16:25.015Z,94997.34
2023-05-13T03:18:52.883Z,94990.19
2023-05-13T03:21:20.999Z,95000.06
2023-05-13T03:23:50.288Z,94983.47
2023-05-13T03:26:18.229Z,94978.47
2023-05-13T03:28:46.336Z,94999.50
2023-05-13T03:31:14.536Z,94983.09
2023-05-13T03:33:42.550Z,94998.69
2023-05-13T03:36:10.701Z,95000.34
2023-05-13T03:38:38.616Z,95008.53
2023-05-13T03:41:07.914Z,95004.34
2023-05-13T03:43:35.849Z,95010.66
2023-05-13T03:46:03.830Z,95015.25
2023-05-13T03:48:31.812Z,95020.50
2023-05-13T03:50:59.756Z,94989.88
2023-05-13T03:53:27.834Z,94989.84
2023-05-13T03:55:55.744Z,95024.69
2023-05-13T03:58:25.009Z,95041.03
2023-05-13T04:00:53.003Z,95007.59
2023-05-13T04:03:20.961Z,95042.69
2023-05-13T04:05:49.578Z,95049.94
2023-05-13T04:08:17.489Z,95050.25
2023-05-13T04:10:45.804Z,95041.44
2023-05-13T04:13:13.787Z,95054.09
2023-05-13T04:15:43.040Z,95026.84
2023-05-13T04:18:11.115Z,95061.75
2023-05-13T04:20:39.593Z,95062.63
2023-05-13T04:23:07.697Z,95063.38
2023-05-13T04:25:36.767Z,95068.22
2023-05-13T04:28:04.781Z,95063.50
2023-05-13T04:30:32.772Z,95070.66
2023-05-13T04:33:02.141Z,95056.16
2023-05-13T04:35:30.229Z,95061.63
2023-05-13T04:37:58.221Z,95079.63
2023-05-13T04:40:26.559Z,95074.47
2023-05-13T04:42:55.591Z,95074.38
2023-05-13T04:45:23.875Z,95072.97
2023-05-13T04:47:52.038Z,95060.81
2023-05-13T04:50:21.586Z,95063.09
2023-05-13T04:52:50.109Z,95076.03
2023-05-13T04:55:18.467Z,95075.44
2023-05-13T04:57:46.366Z,95080.56
2023-05-13T05:00:15.554Z,95080.34
2023-05-13T05:02:43.548Z,95063.50
2023-05-13T05:05:11.474Z,95055.31
2023-05-13T05:07:41.954Z,95073.59
2023-05-13T05:10:10.845Z,95077.66
2023-05-13T05:12:39.073Z,95069.69
2023-05-13T05:15:11.543Z,95071.44
2023-05-13T05:17:39.721Z,95092.25
2023-05-13T05:20:09.015Z,95093.25
2023-05-13T05:22:36.887Z,95078.00
2023-05-13T05:25:06.902Z,95087.75
2023-05-13T05:28:02.263Z,95096.22
2023-05-13T05:30:30.592Z,95099.28
2023-05-13T05:32:58.634Z,95099.78
2023-05-13T05:35:26.638Z,95096.94
2023-05-13T05:37:54.684Z,95074.19
2023-05-13T05:40:24.240Z,95096.50
2023-05-13T05:42:52.176Z,95099.09
2023-05-13T05:45:20.666Z,95094.69
2023-05-13T05:47:54.206Z,95095.03
2023-05-13T05:50:22.662Z,95089.75
2023-05-13T05:52:50.804Z,95094.25
2023-05-13T05:55:19.098Z,95089.41
2023-05-13T05:57:48.537Z,95069.25
2023-05-13T06:00:17.255Z,95070.56
2023-05-13T06:02:46.198Z,95094.25
2023-05-13T06:05:14.324Z,95095.00
2023-05-13T06:07:42.428Z,95109.59
2023-05-13T06:10:11.170Z,95101.41
2023-05-13T06:12:40.984Z,95095.22
2023-05-13T06:15:11.722Z,95092.59
2023-05-13T06:17:40.270Z,95099.75
2023-05-13T06:20:09.127Z,95088.03
2023-05-13T06:22:37.031Z,95097.16
2023-05-13T06:25:05.993Z,95090.28
2023-05-13T06:27:34.519Z,95082.34
2023-05-13T06:30:03.202Z,95113.13
2023-05-13T06:32:32.622Z,95113.75
2023-05-13T06:35:00.625Z,95120.25
2023-05-13T06:37:28.543Z,95108.09
2023-05-13T06:39:56.774Z,95115.25
2023-05-13T06:42:24.738Z,95092.97
2023-05-13T06:44:53.310Z,95125.97
2023-05-13T06:47:23.171Z,95117.00
2023-05-13T06:49:53.441Z,95111.72
2023-05-13T06:52:21.419Z,95114.81
2023-05-13T06:54:49.541Z,95114.56
2023-05-13T06:57:17.569Z,95119.81
2023-05-13T06:59:46.298Z,95125.00
2023-05-13T07:02:14.581Z,95115.84
2023-05-13T07:04:42.570Z,95131.47
2023-05-13T07:07:11.883Z,95120.81
2023-05-13T07:09:39.754Z,95110.72
2023-05-13T07:12:08.963Z,95124.13
2023-05-13T07:14:36.998Z,95137.59
2023-05-13T07:17:05.506Z,95110.19
2023-05-13T07:19:33.407Z,95140.38
2023-05-13T07:22:01.303Z,95138.41
2023-05-13T07:24:31.980Z,95146.94
2023-05-13T07:27:01.349Z,95157.78
2023-05-13T07:29:29.537Z,95144.44
2023-05-13T07:31:57.482Z,95145.28
2023-05-13T07:34:25.536Z,95139.88
2023-05-13T07:36:53.507Z,95132.53
2023-05-13T07:39:21.436Z,95139.59
2023-05-13T07:41:50.958Z,95136.28
2023-05-13T07:44:19.459Z,95131.13
2023-05-13T07:46:49.363Z,95140.63
2023-05-13T07:49:17.415Z,95132.97
2023-05-13T07:51:45.442Z,95122.75
2023-05-13T07:54:13.395Z,95140.75
2023-05-13T07:56:41.313Z,95154.63
2023-05-13T07:59:10.635Z,95149.88
2023-05-13T08:01:39.006Z,95138.31
2023-05-13T08:04:07.286Z,95144.75
2023-05-13T08:06:35.381Z,95136.44
2023-05-13T08:09:03.704Z,95131.63
2023-05-13T08:11:31.714Z,95137.78
2023-05-13T08:13:59.603Z,95125.28
2023-05-13T08:16:28.989Z,95126.63
2023-05-13T08:18:57.592Z,95115.53
2023-05-13T08:21:25.640Z,95129.72
2023-05-13T08:23:53.485Z,95127.13
2023-05-13T08:26:21.357Z,95128.31
2023-05-13T08:28:51.090Z,95121.53
2023-05-13T08:31:21.924Z,95129.84
2023-05-13T08:33:51.722Z,95105.72
2023-05-13T08:36:19.710Z,95118.88
2023-05-13T08:38:47.601Z,95113.03
2023-05-13T08:41:16.810Z,95116.63
2023-05-13T08:43:45.378Z,95113.03
2023-05-13T08:46:13.635Z,95113.56
2023-05-13T08:48:43.170Z,95103.94
2023-05-13T08:51:13.595Z,95101.06
2023-05-13T08:53:41.687Z,95097.50
2023-05-13T08:56:10.416Z,95089.22
2023-05-13T08:58:38.384Z,95101.56
2023-05-13T09:01:07.812Z,95095.31
2023-05-13T09:03:37.053Z,95084.16
2023-05-13T09:06:05.763Z,95065.38
2023-05-13T09:08:36.607Z,95068.16
2023-05-13T09:11:04.924Z,95080.03
2023-05-13T09:13:32.937Z,95068.53
2023-05-13T09:16:00.805Z,95055.72
2023-05-13T09:18:32.400Z,95079.69
2023-05-13T09:21:23.642Z,95060.03
2023-05-13T09:23:57.467Z,95078.09
2023-05-13T09:26:28.995Z,95077.72
2023-05-13T09:29:19.948Z,95080.56
2023-05-13T09:31:49.915Z,95075.25
2023-05-13T09:34:26.791Z,95081.72
2023-05-13T09:37:05.804Z,95069.09
2023-05-13T09:39:42.770Z,95071.75
2023-05-13T09:42:16.877Z,95059.84
2023-05-13T09:44:45.742Z,95066.94
2023-05-13T09:47:14.706Z,95050.81
2023-05-13T09:49:43.841Z,95056.44
2023-05-13T09:52:12.338Z,95058.06
2023-05-13T09:54:41.826Z,95052.25
2023-05-13T09:57:09.742Z,95061.00
2023-05-13T09:59:37.787Z,95053.56
2023-05-13T10:02:08.192Z,95059.00
2023-05-13T10:04:36.392Z,95045.47
2023-05-13T10:07:06.056Z,95066.72
2023-05-13T10:09:39.675Z,95052.19
2023-05-13T10:12:11.424Z,95058.25
2023-05-13T10:14:39.921Z,95027.91
2023-05-13T10:17:09.279Z,95055.75
2023-05-13T10:19:38.238Z,95059.34
2023-05-13T10:22:07.595Z,95070.25
2023-05-13T10:24:38.508Z,95065.41
2023-05-13T10:27:09.460Z,95038.47
2023-05-13T10:29:39.154Z,95051.06
2023-05-13T10:32:09.172Z,95045.59
2023-05-13T10:34:39.123Z,95036.03
2023-05-13T10:37:26.880Z,95043.06
2023-05-13T10:40:18.821Z,95043.13
2023-05-13T10:42:55.829Z,95049.81
2023-05-13T10:45:27.519Z,95044.81
2023-05-13T10:47:57.352Z,95042.56
2023-05-13T10:50:26.184Z,95060.28
2023-05-13T10:52:57.797Z,95063.56
2023-05-13T10:55:28.756Z,95056.91
2023-05-13T10:58:16.920Z,95046.75
2023-05-13T11:00:46.686Z,95045.69
2023-05-13T11:03:33.420Z,95059.69
2023-05-13T11:06:15.373Z,95054.72
2023-05-13T11:08:45.889Z,95038.78
2023-05-13T11:11:35.604Z,95035.97
2023-05-13T11:14:17.792Z,95041.19
2023-05-13T11:16:54.957Z,95032.31
2023-05-13T11:19:24.800Z,95019.72
2023-05-13T11:21:54.162Z,95029.47
2023-05-13T11:24:23.365Z,95020.28
2023-05-13T11:26:53.252Z,95013.91
2023-05-13T11:29:48.746Z,95012.19
2023-05-13T11:32:16.617Z,95010.31
2023-05-13T11:34:52.446Z,95015.59
2023-05-13T11:37:20.846Z,94997.63
2023-05-13T11:39:48.844Z,95005.63
2023-05-13T11:42:17.847Z,94996.66
2023-05-13T11:44:48.082Z,94999.94
2023-05-13T11:47:16.010Z,94983.69
2023-05-13T11:49:46.487Z,94997.53
2023-05-13T11:52:16.078Z,94993.22
2023-05-13T11:54:46.481Z,94997.28
2023-05-13T11:57:21.287Z,94995.06
2023-05-13T11:59:58.693Z,94993.59
2023-05-13T12:02:28.350Z,94986.72
2023-05-13T12:04:57.033Z,94987.50
2023-05-13T12:07:26.171Z,94987.13
2023-05-13T12:09:56.732Z,94985.97
2023-05-13T12:12:24.820Z,94971.97
2023-05-13T12:14:53.152Z,94968.63
2023-05-13T12:17:25.060Z,94982.81
2023-05-13T12:20:13.426Z,94971.63
2023-05-13T12:22:57.651Z,94971.69
2023-05-13T12:25:43.281Z,94978.47
2023-05-13T12:28:16.451Z,94977.63
2023-05-13T12:30:51.395Z,94966.22
2023-05-13T12:33:22.115Z,94974.88
2023-05-13T12:35:52.598Z,94970.31
2023-05-13T12:38:22.327Z,94969.13
2023-05-13T12:40:53.124Z,94965.47
2023-05-13T12:43:22.095Z,94966.97
2023-05-13T12:45:55.130Z,94951.34
2023-05-13T12:48:26.872Z,94961.25
2023-05-13T12:50:56.418Z,94955.84
2023-05-13T12:53:24.460Z,94958.25
2023-05-13T12:55:52.987Z,94918.53
2023-05-13T12:58:21.009Z,94950.50
2023-05-13T13:00:49.135Z,94939.75
2023-05-13T13:03:17.220Z,94950.25
2023-05-13T13:05:46.820Z,94939.59
2023-05-13T13:08:15.023Z,94942.19
2023-05-13T13:10:43.087Z,94921.09
2023-05-13T13:13:11.073Z,94944.41
2023-05-13T13:15:39.478Z,94931.91
2023-05-13T13:18:07.682Z,94931.97
2023-05-13T13:20:37.974Z,94937.00
2023-05-13T13:23:07.229Z,94937.44
2023-05-13T13:25:35.193Z,94921.75
2023-05-13T13:28:03.297Z,94931.44
2023-05-13T13:30:31.751Z,94927.50
2023-05-13T13:32:59.990Z,94920.31
2023-05-13T13:35:27.994Z,94929.00
2023-05-13T13:37:56.253Z,94915.75
2023-05-13T13:40:25.724Z,94921.84
2023-05-13T13:42:53.797Z,94894.06
2023-05-13T13:45:24.180Z,94910.47
2023-05-13T13:47:52.238Z,94915.16
2023-05-13T13:50:20.261Z,94915.16
2023-05-13T13:52:48.257Z,94912.66
2023-05-13T13:55:16.359Z,94924.41
2023-05-13T13:57:45.588Z,94923.94
2023-05-13T14:00:14.506Z,94927.81
2023-05-13T14:02:42.623Z,94927.16
2023-05-13T14:05:10.951Z,94923.88
2023-05-13T14:07:39.040Z,94929.50
2023-05-13T14:10:08.395Z,94921.78
2023-05-13T14:12:36.922Z,94921.78
2023-05-13T14:15:08.558Z,94916.97
2023-05-13T14:17:36.943Z,94908.69
2023-05-13T14:20:10.267Z,94908.44
2023-05-13T14:22:38.575Z,94919.63
2023-05-13T14:25:07.274Z,94916.81
2023-05-13T14:27:36.571Z,94916.88
2023-05-13T14:30:06.884Z,94913.91
2023-05-13T14:32:38.360Z,94893.38
2023-05-13T14:35:07.221Z,94916.16
2023-05-13T14:37:41.924Z,94912.50
2023-05-13T14:40:11.249Z,94899.56
2023-05-13T14:42:41.416Z,94906.56
2023-05-13T14:45:15.344Z,94903.28
2023-05-13T14:47:45.817Z,94911.59
2023-05-13T14:50:15.219Z,94899.75
2023-05-13T14:52:43.118Z,94889.66
2023-05-13T14:55:14.100Z,94902.72
2023-05-13T14:57:42.152Z,94898.47
2023-05-13T15:00:14.719Z,94900.44
2023-05-13T15:02:45.648Z,94906.53
2023-05-13T15:05:15.955Z,94882.44
2023-05-13T15:07:44.159Z,94878.28
2023-05-13T15:10:12.519Z,94902.91
2023-05-13T15:12:42.541Z,94897.38
2023-05-13T15:15:13.100Z,94914.34
2023-05-13T15:17:41.415Z,94897.16
2023-05-13T15:20:10.205Z,94905.88
2023-05-13T15:22:39.959Z,94898.75
2023-05-13T15:25:11.566Z,94894.97
2023-05-13T15:27:39.750Z,94881.75
2023-05-13T15:30:11.265Z,94889.34
2023-05-13T15:32:40.570Z,94870.84
2023-05-13T15:35:14.479Z,94900.69
2023-05-13T15:37:43.677Z,94904.72
2023-05-13T15:40:12.888Z,94913.72
2023-05-13T15:42:44.690Z,94917.66
2023-05-13T15:45:15.143Z,94931.19
2023-05-13T15:47:46.526Z,94938.44
2023-05-13T15:50:14.644Z,94930.25
2023-05-13T15:52:42.732Z,94916.59
2023-05-13T15:55:11.179Z,94906.31
2023-05-13T15:57:40.270Z,94904.41
2023-05-13T16:00:09.713Z,94912.47
2023-05-13T16:02:39.459Z,94926.75
2023-05-13T16:05:09.818Z,94923.34
2023-05-13T16:07:37.748Z,94919.94
2023-05-13T16:10:07.279Z,94925.16
2023-05-13T16:12:35.191Z,94928.72
2023-05-13T16:15:03.123Z,94931.44
2023-05-13T16:17:31.152Z,94928.25
2023-05-13T16:19:59.875Z,94927.47
2023-05-13T16:22:33.834Z,94938.91
2023-05-13T16:25:03.779Z,94943.09
2023-05-13T16:27:32.536Z,94947.28
2023-05-13T16:32:44.006Z,94942.88
2023-05-13T16:35:12.737Z,94951.22
2023-05-13T16:37:44.771Z,94919.88
2023-05-13T16:43:04.827Z,94952.38
2023-05-13T16:45:33.476Z,94950.91
2023-05-13T16:48:01.656Z,94935.97
2023-05-13T16:50:59.470Z,94937.72
2023-05-13T16:58:51.395Z,94943.72
2023-05-13T17:01:19.565Z,94957.19
2023-05-13T17:03:47.595Z,94961.69
2023-05-13T17:06:15.581Z,94954.66
2023-05-13T17:08:44.834Z,94947.91
2023-05-13T17:11:16.620Z,94957.84
2023-05-13T17:13:44.596Z,94951.59
2023-05-13T17:16:13.660Z,94954.91
2023-05-13T17:18:41.687Z,94971.47
2023-05-13T17:21:12.568Z,94973.53
2023-05-13T17:23:40.978Z,94964.25
2023-05-13T17:26:10.311Z,94967.69
2023-05-13T17:28:40.195Z,94962.25
2023-05-13T17:31:09.352Z,94967.94
2023-05-13T17:33:37.213Z,94974.81
2023-05-13T17:36:06.538Z,94986.16
2023-05-13T17:38:34.549Z,94987.81
2023-05-13T17:41:05.277Z,94987.66
2023-05-13T17:43:34.685Z,94983.00
2023-05-13T17:46:02.620Z,94993.09
2023-05-13T17:48:33.175Z,94997.16
2023-05-13T17:51:01.599Z,94990.50
2023-05-13T17:53:29.950Z,94973.34
2023-05-13T17:55:59.385Z,94985.09
2023-05-13T17:58:27.375Z,94969.53
2023-05-13T18:00:56.834Z,94988.72
2023-05-13T18:03:24.731Z,94989.13
2023-05-13T18:05:52.761Z,94989.34
2023-05-13T18:08:20.772Z,94982.25
2023-05-13T18:10:48.757Z,94982.66
2023-05-13T18:13:17.342Z,94999.06
2023-05-13T18:15:45.378Z,94996.38
2023-05-13T18:18:16.324Z,94979.41
2023-05-13T18:20:44.330Z,94980.63
2023-05-13T18:23:14.997Z,94995.16
2023-05-13T18:25:54.923Z,94995.94
2023-05-13T18:28:26.207Z,94987.03
2023-05-13T18:30:57.200Z,94983.19
2023-05-13T18:33:27.496Z,94994.31
2023-05-13T18:35:55.556Z,94990.63
2023-05-13T18:38:23.637Z,94989.81
2023-05-13T18:40:51.601Z,94970.38
2023-05-13T18:43:19.593Z,95001.06
2023-05-13T18:45:48.325Z,94993.59
2023-05-13T18:48:16.296Z,94991.00
2023-05-13T18:50:46.294Z,94998.44
2023-05-13T18:53:14.769Z,94979.25
2023-05-13T18:55:42.686Z,94992.41
2023-05-13T18:58:10.849Z,94983.09
2023-05-13T19:00:38.669Z,94978.84
2023-05-13T19:03:07.401Z,94982.66
2023-05-13T19:05:35.996Z,94978.34
2023-05-13T19:08:06.329Z,94955.50
2023-05-13T19:10:39.955Z,94990.09
2023-05-13T19:13:11.297Z,94962.94
2023-05-13T19:15:39.501Z,94990.44
2023-05-13T19:18:07.508Z,94997.28
2023-05-13T19:20:35.741Z,94996.66
2023-05-13T19:23:05.312Z,95012.13
2023-05-13T19:25:33.262Z,95019.81
2023-05-13T19:28:01.528Z,95007.44
2023-05-13T19:30:29.624Z,95005.44
2023-05-13T19:32:57.809Z,95007.09
2023-05-13T19:35:25.770Z,95019.38
2023-05-13T19:37:53.790Z,95027.41
2023-05-13T19:40:26.407Z,95007.44
2023-05-13T19:42:56.499Z,95011.59
2023-05-13T19:45:25.244Z,95023.16
2023-05-13T19:47:53.264Z,95026.56
2023-05-13T19:50:21.555Z,95012.88
2023-05-13T19:52:49.577Z,95024.00
2023-05-13T19:55:20.337Z,95008.84
2023-05-13T19:57:49.678Z,95015.06
2023-05-13T20:00:18.063Z,95023.50
2023-05-13T20:02:46.480Z,95024.47
2023-05-13T20:05:14.424Z,95009.50
2023-05-13T20:07:42.390Z,95034.16
2023-05-13T20:10:12.024Z,95030.91
2023-05-13T20:12:40.062Z,95020.97
2023-05-13T20:15:10.386Z,95020.84
2023-05-13T20:17:38.769Z,95019.97
2023-05-13T20:20:08.169Z,95019.78
2023-05-13T20:22:36.392Z,95024.38
2023-05-13T20:25:04.365Z,95025.31
2023-05-13T20:27:32.416Z,95024.81
2023-05-13T20:30:01.207Z,95019.06
2023-05-13T20:32:31.178Z,95018.47
2023-05-13T20:34:59.162Z,95017.88
2023-05-13T20:37:27.142Z,95018.28
2023-05-13T20:39:55.058Z,95006.16
2023-05-13T20:42:23.513Z,94995.78
2023-05-13T20:44:52.056Z,95012.25
2023-05-13T20:47:21.199Z,95008.16
2023-05-13T20:49:50.558Z,94999.03
2023-05-13T20:52:18.674Z,94999.44
2023-05-13T20:54:46.644Z,95003.03
2023-05-13T20:57:14.544Z,94994.69
2023-05-13T20:59:42.476Z,95005.72
2023-05-13T21:02:10.466Z,95014.75
2023-05-13T21:04:38.392Z,95017.94
2023-05-13T21:07:07.791Z,94991.81
2023-05-13T21:09:35.768Z,95019.03
2023-05-13T21:12:03.643Z,95013.94
2023-05-13T21:14:31.572Z,95025.44
2023-05-13T21:17:03.024Z,95023.81
2023-05-13T21:19:31.450Z,95023.28
2023-05-13T21:22:01.639Z,95030.28
2023-05-13T21:24:30.929Z,95032.06
2023-05-13T21:26:58.771Z,95036.09
2023-05-13T21:29:26.722Z,95030.28
2023-05-13T21:31:54.629Z,95029.06
2023-05-13T21:34:22.743Z,95043.13
2023-05-13T21:36:50.714Z,95043.38
2023-05-13T21:39:18.801Z,95039.06
2023-05-13T21:41:48.173Z,95012.56
2023-05-13T21:44:16.300Z,95043.50
2023-05-13T21:46:44.148Z,95031.22
2023-05-13T21:49:12.252Z,95034.09
2023-05-13T21:51:40.395Z,95027.69
2023-05-13T21:54:08.411Z,95026.16
2023-05-13T21:56:36.316Z,95017.16
2023-05-13T21:59:05.549Z,95025.88
2023-05-13T22:01:33.430Z,95026.63
2023-05-13T22:04:01.301Z,95009.13
2023-05-13T22:06:29.276Z,95022.72
2023-05-13T22:08:57.160Z,95016.03
2023-05-13T22:11:25.130Z,95016.41
2023-05-13T22:13:52.976Z,95017.78
2023-05-13T22:16:22.443Z,95010.31
2023-05-13T22:18:50.981Z,95012.41
2023-05-13T22:21:19.267Z,95001.09
2023-05-13T22:23:47.433Z,95002.69
2023-05-13T22:26:15.431Z,95004.75
2023-05-13T22:28:43.694Z,95005.31
2023-05-13T22:31:11.639Z,94984.38
2023-05-13T22:33:40.905Z,94988.88
2023-05-13T22:36:09.061Z,94998.59
2023-05-13T22:38:37.287Z,94991.72
2023-05-13T22:41:05.238Z,94994.91
2023-05-13T22:43:33.682Z,95005.44
2023-05-13T22:46:01.707Z,95008.06
2023-05-13T22:48:29.608Z,94994.09
2023-05-13T22:50:58.848Z,95004.09
2023-05-13T22:53:26.818Z,95003.75
2023-05-13T22:55:54.694Z,95004.28
2023-05-13T22:58:22.732Z,95007.75
2023-05-13T23:00:50.909Z,95010.78
2023-05-13T23:03:18.906Z,95003.06
2023-05-13T23:05:46.821Z,95006.47
2023-05-13T23:08:16.127Z,94990.53
2023-05-13T23:10:43.989Z,94997.75
2023-05-13T23:13:11.880Z,95003.97
2023-05-13T23:15:39.827Z,95000.28
2023-05-13T23:18:07.823Z,94996.31
2023-05-13T23:20:35.699Z,94987.13
2023-05-13T23:23:03.670Z,94983.41
2023-05-13T23:25:32.896Z,94983.16
2023-05-13T23:28:00.807Z,94982.44
2023-05-13T23:30:28.708Z,94978.94
2023-05-13T23:32:56.632Z,94986.34
2023-05-13T23:35:24.593Z,94979.50
2023-05-13T23:37:52.481Z,94987.69
2023-05-13T23:40:20.641Z,94982.44
2023-05-13T23:42:52.872Z,94982.84
2023-05-13T23:45:20.912Z,94983.03
2023-05-13T23:47:48.958Z,94981.84
2023-05-13T23:50:17.018Z,94975.63
2023-05-13T23:52:44.925Z,94980.84
2023-05-13T23:55:12.885Z,94980.84
2023-05-13T23:57:40.765Z,94975.63
